createdAt,value
2018-05-08T00:00:38.738Z,0.00
2018-05-08T00:02:30.485Z,0.00
2018-05-08T00:03:30.422Z,0.00
2018-05-08T00:05:22.191Z,0.00
2018-05-08T00:06:22.114Z,0.00
2018-05-08T00:08:13.893Z,0.00
2018-05-08T00:09:13.805Z,0.00
2018-05-08T00:11:05.565Z,0.00
2018-05-08T00:12:05.497Z,0.00
2018-05-08T00:13:57.277Z,0.00
2018-05-08T00:14:57.204Z,0.00
2018-05-08T00:16:48.968Z,0.00
2018-05-08T00:17:48.913Z,0.00
2018-05-08T00:19:40.705Z,0.00
2018-05-08T00:20:40.624Z,0.00
2018-05-08T00:22:32.373Z,0.00
2018-05-08T00:23:32.313Z,0.00
2018-05-08T00:25:24.077Z,0.00
2018-05-08T00:26:24.006Z,0.00
2018-05-08T00:28:15.771Z,0.00
2018-05-08T00:29:15.707Z,0.00
2018-05-08T00:31:07.495Z,0.00
2018-05-08T00:32:07.418Z,0.00
2018-05-08T00:33:59.189Z,0.00
2018-05-08T00:34:59.112Z,0.00
2018-05-08T00:36:50.870Z,0.00
2018-05-08T00:37:50.825Z,0.00
2018-05-08T00:39:42.573Z,0.00
2018-05-08T00:40:42.495Z,0.00
2018-05-08T00:42:34.264Z,0.00
2018-05-08T00:43:34.190Z,0.00
2018-05-08T00:45:25.961Z,0.00
2018-05-08T00:46:25.895Z,0.00
2018-05-08T00:48:17.648Z,0.00
2018-05-08T00:49:17.582Z,0.00
2018-05-08T00:51:09.363Z,0.00
2018-05-08T00:52:09.288Z,0.00
2018-05-08T00:54:01.060Z,0.00
2018-05-08T00:55:00.998Z,0.00
2018-05-08T00:56:52.765Z,0.00
2018-05-08T00:57:52.694Z,0.00
2018-05-08T00:59:44.454Z,0.00
2018-05-08T01:00:44.386Z,0.00
2018-05-08T01:02:36.149Z,0.00
2018-05-08T01:03:36.090Z,0.00
2018-05-08T01:05:27.849Z,0.00
2018-05-08T01:06:27.778Z,0.00
2018-05-08T01:08:19.571Z,0.00
2018-05-08T01:09:19.496Z,0.00
2018-05-08T01:11:11.277Z,0.00
2018-05-08T01:12:11.199Z,0.00
2018-05-08T01:14:02.946Z,0.00
2018-05-08T01:15:02.889Z,0.00
2018-05-08T01:16:54.652Z,0.00
2018-05-08T01:17:54.572Z,0.00
2018-05-08T01:19:46.366Z,0.00
2018-05-08T01:20:46.284Z,0.00
2018-05-08T01:22:38.031Z,0.00
2018-05-08T01:23:37.972Z,0.00
2018-05-08T01:25:29.745Z,0.00
2018-05-08T01:26:29.664Z,0.00
2018-05-08T01:28:21.430Z,0.00
2018-05-08T01:29:21.359Z,0.00
2018-05-08T01:31:13.140Z,0.00
2018-05-08T01:32:13.068Z,0.00
2018-05-08T01:34:04.821Z,0.00
2018-05-08T01:35:04.755Z,0.00
2018-05-08T01:36:56.535Z,0.00
2018-05-08T01:37:56.466Z,0.00
2018-05-08T01:39:48.210Z,0.00
2018-05-08T01:40:48.149Z,0.00
2018-05-08T01:42:39.905Z,0.00
2018-05-08T01:43:39.835Z,0.00
2018-05-08T01:45:31.610Z,0.00
2018-05-08T01:46:31.536Z,0.00
2018-05-08T01:48:23.298Z,0.00
2018-05-08T01:49:23.236Z,0.00
2018-05-08T01:51:15.035Z,0.00
2018-05-08T01:52:14.954Z,0.00
2018-05-08T01:54:06.705Z,0.00
2018-05-08T01:55:06.643Z,0.00
2018-05-08T01:56:58.408Z,0.00
2018-05-08T01:57:58.337Z,0.00
2018-05-08T01:59:50.120Z,0.00
2018-05-08T02:00:50.063Z,0.00
2018-05-08T02:02:41.823Z,0.00
2018-05-08T02:03:41.744Z,0.00
2018-05-08T02:05:33.519Z,0.00
2018-05-08T02:06:33.433Z,0.00
2018-05-08T02:08:25.188Z,0.00
2018-05-08T02:09:25.130Z,0.00
2018-05-08T02:11:16.897Z,0.00
2018-05-08T02:12:16.820Z,0.00
2018-05-08T02:14:08.571Z,0.00
2018-05-08T02:15:08.507Z,0.00
2018-05-08T02:17:00.288Z,0.00
2018-05-08T02:18:00.209Z,0.00
2018-05-08T02:19:51.963Z,0.00
2018-05-08T02:20:51.899Z,0.00
2018-05-08T02:22:43.667Z,0.00
2018-05-08T02:23:43.585Z,0.00
2018-05-08T02:25:35.345Z,0.00
2018-05-08T02:26:35.284Z,0.00
2018-05-08T02:28:27.052Z,0.00
2018-05-08T02:29:26.980Z,0.00
2018-05-08T02:31:18.736Z,0.00
2018-05-08T02:32:18.659Z,0.00
2018-05-08T02:34:10.428Z,0.00
2018-05-08T02:35:10.372Z,0.00
2018-05-08T02:37:02.118Z,0.00
2018-05-08T02:38:02.047Z,0.00
2018-05-08T02:39:53.849Z,0.00
2018-05-08T02:40:53.775Z,0.00
2018-05-08T02:42:45.553Z,0.00
2018-05-08T02:43:45.481Z,0.00
2018-05-08T02:45:37.244Z,0.00
2018-05-08T02:46:37.182Z,0.00
2018-05-08T02:48:28.959Z,4.00
2018-05-08T02:49:28.894Z,0.00
2018-05-08T02:51:20.648Z,4.00
2018-05-08T02:52:20.575Z,0.00
2018-05-08T02:54:12.339Z,4.00
2018-05-08T02:55:12.276Z,4.00
2018-05-08T02:57:04.061Z,8.00
2018-05-08T02:58:03.988Z,4.00
2018-05-08T02:59:55.740Z,8.00
2018-05-08T03:00:55.678Z,8.00
2018-05-08T03:02:47.452Z,8.00
2018-05-08T03:03:47.383Z,12.00
2018-05-08T03:05:39.139Z,16.00
2018-05-08T03:06:39.080Z,20.00
2018-05-08T03:08:30.843Z,24.00
2018-05-08T03:09:30.769Z,24.00
2018-05-08T03:11:22.518Z,32.00
2018-05-08T03:12:22.472Z,36.00
2018-05-08T03:14:14.234Z,44.00
2018-05-08T03:15:14.167Z,48.00
2018-05-08T03:17:05.916Z,60.00
2018-05-08T03:18:05.845Z,64.00
2018-05-08T03:19:57.622Z,76.00
2018-05-08T03:20:57.562Z,80.00
2018-05-08T03:22:49.320Z,92.00
2018-05-08T03:23:49.247Z,100.00
2018-05-08T03:25:41.026Z,112.00
2018-05-08T03:26:40.962Z,120.00
2018-05-08T03:28:32.733Z,140.00
2018-05-08T03:29:32.649Z,148.00
2018-05-08T03:31:24.404Z,168.00
2018-05-08T03:32:24.347Z,176.00
2018-05-08T03:34:16.119Z,196.00
2018-05-08T03:35:16.022Z,208.00
2018-05-08T03:37:07.786Z,228.00
2018-05-08T03:38:07.712Z,240.00
2018-05-08T03:39:59.490Z,260.00
2018-05-08T03:40:59.395Z,272.00
2018-05-08T03:42:51.178Z,296.00
2018-05-08T03:43:51.104Z,308.00
2018-05-08T03:45:42.845Z,332.00
2018-05-08T03:46:42.783Z,344.00
2018-05-08T03:48:34.540Z,368.00
2018-05-08T03:49:34.475Z,380.00
2018-05-08T03:51:26.244Z,404.00
2018-05-08T03:52:26.187Z,416.00
2018-05-08T03:54:17.981Z,440.00
2018-05-08T03:55:17.910Z,456.00
2018-05-08T03:57:09.705Z,480.00
2018-05-08T03:58:09.637Z,488.00
2018-05-08T04:00:01.393Z,512.00
2018-05-08T04:01:01.326Z,524.00
2018-05-08T04:02:53.150Z,548.00
2018-05-08T04:03:53.023Z,560.00
2018-05-08T04:05:44.825Z,584.00
2018-05-08T04:06:44.746Z,600.00
2018-05-08T04:08:36.506Z,620.00
2018-05-08T04:09:36.433Z,632.00
2018-05-08T04:11:28.227Z,656.00
2018-05-08T04:12:28.157Z,668.00
2018-05-08T04:14:19.918Z,688.00
2018-05-08T04:15:19.851Z,696.00
2018-05-08T04:17:11.613Z,716.00
2018-05-08T04:18:11.551Z,724.00
2018-05-08T04:20:03.308Z,744.00
2018-05-08T04:21:03.313Z,756.00
2018-05-08T04:22:54.979Z,772.00
2018-05-08T04:23:54.920Z,784.00
2018-05-08T04:25:46.699Z,800.00
2018-05-08T04:26:46.626Z,812.00
2018-05-08T04:28:38.386Z,832.00
2018-05-08T04:29:38.313Z,844.00
2018-05-08T04:31:30.063Z,864.00
2018-05-08T04:32:30.006Z,872.00
2018-05-08T04:34:21.778Z,888.00
2018-05-08T04:35:21.705Z,900.00
2018-05-08T04:37:13.448Z,916.00
2018-05-08T04:38:13.387Z,920.00
2018-05-08T04:40:05.139Z,940.00
2018-05-08T04:41:05.067Z,944.00
2018-05-08T04:42:56.839Z,964.00
2018-05-08T04:43:56.781Z,976.00
2018-05-08T04:45:48.575Z,992.00
2018-05-08T04:46:48.502Z,1000.00
2018-05-08T04:48:40.256Z,1020.00
2018-05-08T04:49:40.191Z,1028.00
2018-05-08T04:51:31.945Z,1052.00
2018-05-08T04:52:31.872Z,1064.00
2018-05-08T04:54:23.639Z,1128.00
2018-05-08T04:55:23.565Z,1184.00
2018-05-08T04:57:15.320Z,1292.00
2018-05-08T04:58:15.249Z,1328.00
2018-05-08T05:00:07.007Z,1388.00
2018-05-08T05:01:06.943Z,1456.00
2018-05-08T05:02:58.707Z,1672.00
2018-05-08T05:03:58.641Z,1840.00
2018-05-08T05:05:50.441Z,2260.00
2018-05-08T05:06:50.392Z,2516.00
2018-05-08T05:08:42.128Z,3052.00
2018-05-08T05:09:42.058Z,3304.00
2018-05-08T05:11:33.848Z,3988.00
2018-05-08T05:12:33.762Z,4400.00
2018-05-08T05:14:25.561Z,5028.00
2018-05-08T05:15:25.463Z,5388.00
2018-05-08T05:17:17.285Z,5816.00
2018-05-08T05:18:17.204Z,6008.00
2018-05-08T05:20:08.970Z,6408.00
2018-05-08T05:21:08.907Z,6644.00
2018-05-08T05:23:00.673Z,7192.00
2018-05-08T05:24:00.618Z,7488.00
2018-05-08T05:25:52.381Z,7648.00
2018-05-08T05:26:52.306Z,7740.00
2018-05-08T05:28:44.074Z,7828.00
2018-05-08T05:29:44.014Z,7884.00
2018-05-08T05:31:35.839Z,7824.00
2018-05-08T05:32:35.718Z,7824.00
2018-05-08T05:34:27.495Z,7924.00
2018-05-08T05:35:27.444Z,8004.00
2018-05-08T05:37:19.226Z,7916.00
2018-05-08T05:38:19.138Z,7908.00
2018-05-08T05:40:10.933Z,8108.00
2018-05-08T05:41:10.865Z,8168.00
2018-05-08T05:43:02.651Z,8364.00
2018-05-08T05:44:02.588Z,8388.00
2018-05-08T05:45:54.367Z,8360.00
2018-05-08T05:46:54.283Z,8256.00
2018-05-08T05:48:46.076Z,8268.00
2018-05-08T05:49:46.011Z,8076.00
2018-05-08T05:51:37.799Z,8168.00
2018-05-08T05:52:37.731Z,8352.00
2018-05-08T05:54:29.543Z,8548.00
2018-05-08T05:55:29.509Z,8668.00
2018-05-08T05:57:21.258Z,8572.00
2018-05-08T05:58:21.195Z,8572.00
2018-05-08T06:00:12.974Z,8556.00
2018-05-08T06:01:12.909Z,8616.00
2018-05-08T06:03:04.683Z,8612.00
2018-05-08T06:04:04.617Z,8768.00
2018-05-08T06:05:56.450Z,8812.00
2018-05-08T06:06:56.338Z,8772.00
2018-05-08T06:08:48.119Z,8844.00
2018-05-08T06:09:48.157Z,8952.00
2018-05-08T06:11:39.858Z,9048.00
2018-05-08T06:12:39.792Z,9248.00
2018-05-08T06:14:31.575Z,9816.00
2018-05-08T06:15:31.523Z,10432.00
2018-05-08T06:17:23.318Z,11448.00
2018-05-08T06:18:23.241Z,11116.00
2018-05-08T06:20:15.057Z,10884.00
2018-05-08T06:21:14.999Z,10772.00
2018-05-08T06:23:06.765Z,11296.00
2018-05-08T06:24:06.694Z,11168.00
2018-05-08T06:25:58.466Z,11744.00
2018-05-08T06:26:58.405Z,11924.00
2018-05-08T06:28:50.168Z,12480.00
2018-05-08T06:29:50.119Z,12448.00
2018-05-08T06:31:41.901Z,13408.00
2018-05-08T06:32:41.837Z,14112.00
2018-05-08T06:34:33.606Z,14912.00
2018-05-08T06:35:33.569Z,15104.00
2018-05-08T06:37:25.331Z,15552.00
2018-05-08T06:38:25.273Z,16256.00
2018-05-08T06:40:17.053Z,17152.00
2018-05-08T06:41:16.995Z,16416.00
2018-05-08T06:43:08.788Z,17792.00
2018-05-08T06:44:08.727Z,18848.00
2018-05-08T06:46:00.505Z,20064.00
2018-05-08T06:47:00.455Z,20448.00
2018-05-08T06:48:52.230Z,13088.00
2018-05-08T06:49:52.170Z,15392.00
2018-05-08T06:51:43.971Z,21344.00
2018-05-08T06:52:43.912Z,22112.00
2018-05-08T06:54:35.675Z,20608.00
2018-05-08T06:55:35.623Z,19936.00
2018-05-08T06:57:27.406Z,20640.00
2018-05-08T06:58:27.343Z,20288.00
2018-05-08T07:00:19.151Z,20864.00
2018-05-08T07:01:19.089Z,21536.00
2018-05-08T07:03:10.875Z,23520.00
2018-05-08T07:04:10.809Z,23488.00
2018-05-08T07:06:02.593Z,21056.00
2018-05-08T07:07:02.545Z,20896.00
2018-05-08T07:08:54.332Z,23456.00
2018-05-08T07:09:54.270Z,20992.00
2018-05-08T07:11:46.053Z,20192.00
2018-05-08T07:12:45.995Z,18752.00
2018-05-08T07:14:37.775Z,14944.00
2018-05-08T07:15:37.821Z,14976.00
2018-05-08T07:17:29.502Z,25088.00
2018-05-08T07:18:29.445Z,22336.00
2018-05-08T07:20:21.219Z,21248.00
2018-05-08T07:21:21.173Z,21600.00
2018-05-08T07:23:12.956Z,21376.00
2018-05-08T07:24:12.896Z,21408.00
2018-05-08T07:26:04.704Z,22336.00
2018-05-08T07:27:04.646Z,23168.00
2018-05-08T07:28:56.460Z,19008.00
2018-05-08T07:29:56.439Z,20736.00
2018-05-08T07:31:48.191Z,19392.00
2018-05-08T07:32:48.148Z,22080.00
2018-05-08T07:34:39.948Z,24384.00
2018-05-08T07:35:39.887Z,19136.00
2018-05-08T07:37:31.677Z,18496.00
2018-05-08T07:38:31.626Z,15552.00
2018-05-08T07:40:23.409Z,9960.00
2018-05-08T07:41:23.348Z,10152.00
2018-05-08T07:43:15.137Z,9952.00
2018-05-08T07:44:15.075Z,9176.00
2018-05-08T07:46:06.851Z,9484.00
2018-05-08T07:47:06.850Z,9172.00
2018-05-08T07:48:58.586Z,10192.00
2018-05-08T07:49:58.531Z,9912.00
2018-05-08T07:51:50.348Z,12272.00
2018-05-08T07:52:50.255Z,14784.00
2018-05-08T07:54:42.036Z,15360.00
2018-05-08T07:55:41.980Z,15456.00
2018-05-08T07:57:33.782Z,20032.00
2018-05-08T07:58:33.701Z,13316.00
2018-05-08T08:00:25.490Z,20480.00
2018-05-08T08:01:25.428Z,22752.00
2018-05-08T08:03:17.291Z,23296.00
2018-05-08T08:04:17.150Z,21440.00
2018-05-08T08:06:08.925Z,32768.00
2018-05-08T08:07:08.877Z,17248.00
2018-05-08T08:09:00.690Z,24032.00
2018-05-08T08:10:00.601Z,26560.00
2018-05-08T08:11:52.378Z,26528.00
2018-05-08T08:12:52.327Z,24800.00
2018-05-08T08:14:44.115Z,30528.00
2018-05-08T08:15:44.057Z,31648.00
2018-05-08T08:17:35.831Z,16960.00
2018-05-08T08:18:35.860Z,16192.00
2018-05-08T08:20:27.599Z,25056.00
2018-05-08T08:21:27.530Z,19424.00
2018-05-08T08:23:19.318Z,17952.00
2018-05-08T08:24:19.269Z,16512.00
2018-05-08T08:26:11.055Z,15168.00
2018-05-08T08:27:10.995Z,14144.00
2018-05-08T08:29:02.799Z,12468.00
2018-05-08T08:30:02.730Z,10776.00
2018-05-08T08:31:54.505Z,9892.00
2018-05-08T08:32:54.454Z,9488.00
2018-05-08T08:34:46.240Z,9612.00
2018-05-08T08:35:46.183Z,10588.00
2018-05-08T08:37:37.953Z,13208.00
2018-05-08T08:38:37.903Z,11236.00
2018-05-08T08:40:29.691Z,12756.00
2018-05-08T08:41:29.629Z,12936.00
2018-05-08T08:43:21.406Z,13728.00
2018-05-08T08:44:21.362Z,13292.00
2018-05-08T08:46:13.155Z,13392.00
2018-05-08T08:47:13.085Z,13348.00
2018-05-08T08:49:04.858Z,14880.00
2018-05-08T08:50:04.815Z,13800.00
2018-05-08T08:51:56.604Z,13736.00
2018-05-08T08:52:56.540Z,13692.00
2018-05-08T08:54:48.328Z,13688.00
2018-05-08T08:55:48.266Z,11188.00
2018-05-08T08:57:40.055Z,13416.00
2018-05-08T08:58:40.010Z,13292.00
2018-05-08T09:00:31.907Z,12460.00
2018-05-08T09:01:31.763Z,12352.00
2018-05-08T09:03:23.518Z,14092.00
2018-05-08T09:04:23.471Z,12180.00
2018-05-08T09:06:15.261Z,17440.00
2018-05-08T09:07:15.207Z,22400.00
2018-05-08T09:09:07.010Z,39040.00
2018-05-08T09:10:06.958Z,36736.00
2018-05-08T09:11:58.844Z,21056.00
2018-05-08T09:12:58.725Z,11008.00
2018-05-08T09:14:50.519Z,8456.00
2018-05-08T09:15:50.474Z,9236.00
2018-05-08T09:17:42.259Z,14080.00
2018-05-08T09:18:42.201Z,9652.00
2018-05-08T09:20:33.987Z,28096.00
2018-05-08T09:21:33.947Z,39776.00
2018-05-08T09:23:25.732Z,45120.00
2018-05-08T09:24:25.675Z,35040.00
2018-05-08T09:26:17.496Z,47456.00
2018-05-08T09:27:17.445Z,22112.00
2018-05-08T09:29:09.212Z,18752.00
2018-05-08T09:30:09.175Z,61312.00
2018-05-08T09:32:00.950Z,37664.00
2018-05-08T09:33:00.897Z,45760.00
2018-05-08T09:34:52.727Z,44416.00
2018-05-08T09:35:52.678Z,19616.00
2018-05-08T09:37:44.461Z,66464.00
2018-05-08T09:38:44.403Z,56800.00
2018-05-08T09:40:36.177Z,29056.00
2018-05-08T09:41:36.130Z,35360.00
2018-05-08T09:43:27.913Z,43040.00
2018-05-08T09:44:27.860Z,45312.00
2018-05-08T09:46:19.627Z,13948.00
2018-05-08T09:47:19.584Z,12876.00
2018-05-08T09:49:11.381Z,12108.00
2018-05-08T09:50:11.309Z,19552.00
2018-05-08T09:52:03.094Z,26560.00
2018-05-08T09:53:03.037Z,27520.00
2018-05-08T09:54:54.874Z,34912.00
2018-05-08T09:55:54.763Z,12640.00
2018-05-08T09:57:46.544Z,50336.00
2018-05-08T09:58:46.490Z,3232.00
2018-05-08T10:00:38.263Z,39648.00
2018-05-08T10:01:38.261Z,50080.00
2018-05-08T10:03:29.996Z,36352.00
2018-05-08T10:04:29.939Z,29888.00
2018-05-08T10:06:21.746Z,26624.00
2018-05-08T10:07:21.704Z,48000.00
2018-05-08T10:09:13.477Z,48832.00
2018-05-08T10:10:13.417Z,47424.00
2018-05-08T10:12:05.197Z,28608.00
2018-05-08T10:13:05.149Z,49408.00
2018-05-08T10:14:56.930Z,39520.00
2018-05-08T10:15:56.875Z,48256.00
2018-05-08T10:17:48.672Z,0.00
2018-05-08T10:18:48.602Z,61184.00
2018-05-08T10:20:40.489Z,52864.00
2018-05-08T10:21:40.368Z,51328.00
2018-05-08T10:23:32.303Z,20320.00
2018-05-08T10:24:32.099Z,35360.00
2018-05-08T10:26:23.987Z,38528.00
2018-05-08T10:27:23.840Z,50912.00
2018-05-08T10:29:15.619Z,61088.00
2018-05-08T10:30:15.560Z,42048.00
2018-05-08T10:32:07.351Z,37728.00
2018-05-08T10:33:07.400Z,47328.00
2018-05-08T10:34:59.111Z,46944.00
2018-05-08T10:35:59.062Z,52288.00
2018-05-08T10:37:50.877Z,52928.00
2018-05-08T10:38:50.813Z,53824.00
2018-05-08T10:40:42.627Z,30272.00
2018-05-08T10:41:42.566Z,53216.00
2018-05-08T10:43:34.372Z,54272.00
2018-05-08T10:44:34.316Z,56096.00
2018-05-08T10:46:26.096Z,57536.00
2018-05-08T10:47:26.043Z,57984.00
2018-05-08T10:49:17.842Z,55200.00
2018-05-08T10:50:17.781Z,81600.00
2018-05-08T10:52:09.560Z,54208.00
2018-05-08T10:53:09.512Z,52384.00
2018-05-08T10:55:01.301Z,50976.00
2018-05-08T10:56:01.240Z,50432.00
2018-05-08T10:57:53.014Z,52992.00
2018-05-08T10:58:52.967Z,55328.00
2018-05-08T11:00:44.758Z,56640.00
2018-05-08T11:01:44.777Z,52256.00
2018-05-08T11:03:36.486Z,53248.00
2018-05-08T11:04:36.425Z,12256.00
2018-05-08T11:06:28.204Z,49088.00
2018-05-08T11:07:28.157Z,21408.00
2018-05-08T11:09:20.007Z,3848.00
2018-05-08T11:10:19.945Z,3556.00
2018-05-08T11:12:11.722Z,3224.00
2018-05-08T11:13:11.676Z,3024.00
2018-05-08T11:15:03.465Z,2788.00
2018-05-08T11:16:03.401Z,2708.00
2018-05-08T11:17:55.174Z,2588.00
2018-05-08T11:18:55.123Z,2576.00
2018-05-08T11:20:46.913Z,2528.00
2018-05-08T11:21:46.848Z,2500.00
2018-05-08T11:23:38.663Z,2420.00
2018-05-08T11:24:38.573Z,2284.00
2018-05-08T11:26:30.368Z,2356.00
2018-05-08T11:27:30.302Z,2368.00
2018-05-08T11:29:22.084Z,2316.00
2018-05-08T11:30:22.017Z,2320.00
2018-05-08T11:32:13.800Z,2288.00
2018-05-08T11:33:13.747Z,2276.00
2018-05-08T11:35:05.516Z,2108.00
2018-05-08T11:36:05.453Z,2216.00
2018-05-08T11:37:57.219Z,2276.00
2018-05-08T11:38:57.160Z,2212.00
2018-05-08T11:40:48.929Z,2248.00
2018-05-08T11:41:48.865Z,2232.00
2018-05-08T11:43:40.640Z,2216.00
2018-05-08T11:44:40.618Z,2216.00
2018-05-08T11:46:32.390Z,2220.00
2018-05-08T11:47:32.321Z,2196.00
2018-05-08T11:49:24.098Z,2192.00
2018-05-08T11:50:24.099Z,2148.00
2018-05-08T11:52:15.824Z,2132.00
2018-05-08T11:53:15.769Z,2132.00
2018-05-08T11:55:07.553Z,2148.00
2018-05-08T11:56:07.489Z,2140.00
2018-05-08T11:57:59.290Z,2104.00
2018-05-08T11:58:59.219Z,2108.00
2018-05-08T12:00:50.993Z,2100.00
2018-05-08T12:01:50.921Z,2140.00
2018-05-08T12:03:42.680Z,2160.00
2018-05-08T12:04:42.628Z,2196.00
2018-05-08T12:06:34.416Z,2192.00
2018-05-08T12:07:34.350Z,2168.00
2018-05-08T12:09:26.149Z,2176.00
2018-05-08T12:10:26.070Z,2176.00
2018-05-08T12:12:17.849Z,2180.00
2018-05-08T12:13:17.791Z,2208.00
2018-05-08T12:15:09.589Z,2180.00
2018-05-08T12:16:09.519Z,2144.00
2018-05-08T12:18:01.287Z,2152.00
2018-05-08T12:19:01.228Z,2180.00
2018-05-08T12:20:52.999Z,2148.00
2018-05-08T12:21:53.013Z,2200.00
2018-05-08T12:23:44.697Z,2128.00
2018-05-08T12:24:44.641Z,2112.00
2018-05-08T12:26:36.413Z,2116.00
2018-05-08T12:27:36.341Z,2112.00
2018-05-08T12:29:28.207Z,2072.00
2018-05-08T12:30:28.151Z,2100.00
2018-05-08T12:32:19.938Z,2108.00
2018-05-08T12:33:19.869Z,2084.00
2018-05-08T12:35:11.641Z,2108.00
2018-05-08T12:36:11.630Z,2048.00
2018-05-08T12:38:03.369Z,2148.00
2018-05-08T12:39:03.319Z,2132.00
2018-05-08T12:40:55.092Z,2116.00
2018-05-08T12:41:55.022Z,2080.00
2018-05-08T12:43:46.809Z,2096.00
2018-05-08T12:44:46.733Z,2088.00
2018-05-08T12:46:38.509Z,2112.00
2018-05-08T12:47:38.441Z,2120.00
2018-05-08T12:49:30.204Z,2112.00
2018-05-08T12:50:30.149Z,2256.00
2018-05-08T12:52:21.918Z,2096.00
2018-05-08T12:53:21.922Z,2064.00
2018-05-08T12:55:13.646Z,2108.00
2018-05-08T12:56:13.631Z,1996.00
2018-05-08T12:58:05.317Z,2080.00
2018-05-08T12:59:05.276Z,2048.00
2018-05-08T13:00:57.044Z,2064.00
2018-05-08T13:01:56.960Z,2044.00
2018-05-08T13:03:48.733Z,2036.00
2018-05-08T13:04:48.674Z,2064.00
2018-05-08T13:06:40.474Z,2064.00
2018-05-08T13:07:40.405Z,2048.00
2018-05-08T13:09:32.191Z,2064.00
2018-05-08T13:10:32.111Z,2032.00
2018-05-08T13:12:23.882Z,2020.00
2018-05-08T13:13:23.815Z,2028.00
2018-05-08T13:15:15.597Z,2020.00
2018-05-08T13:16:15.541Z,2016.00
2018-05-08T13:18:07.324Z,1980.00
2018-05-08T13:19:07.261Z,1984.00
2018-05-08T13:20:59.056Z,1980.00
2018-05-08T13:21:58.991Z,1956.00
2018-05-08T13:23:50.752Z,1964.00
2018-05-08T13:24:50.701Z,1960.00
2018-05-08T13:26:42.472Z,1968.00
2018-05-08T13:27:42.402Z,1972.00
2018-05-08T13:29:34.175Z,1956.00
2018-05-08T13:30:34.112Z,1992.00
2018-05-08T13:32:25.906Z,1972.00
2018-05-08T13:33:25.837Z,1980.00
2018-05-08T13:35:17.609Z,1976.00
2018-05-08T13:36:17.548Z,1972.00
2018-05-08T13:38:09.305Z,1972.00
2018-05-08T13:39:09.242Z,1960.00
2018-05-08T13:41:01.013Z,2012.00
2018-05-08T13:42:00.959Z,1932.00
2018-05-08T13:43:52.839Z,1920.00
2018-05-08T13:44:52.669Z,1916.00
2018-05-08T13:46:44.442Z,1904.00
2018-05-08T13:47:44.376Z,1888.00
2018-05-08T13:49:36.147Z,1896.00
2018-05-08T13:50:36.089Z,1892.00
2018-05-08T13:52:27.862Z,1876.00
2018-05-08T13:53:27.794Z,1876.00
2018-05-08T13:55:19.561Z,1864.00
2018-05-08T13:56:19.499Z,1872.00
2018-05-08T13:58:11.279Z,1884.00
2018-05-08T13:59:11.216Z,1860.00
2018-05-08T14:01:02.996Z,1872.00
2018-05-08T14:02:02.947Z,1828.00
2018-05-08T14:03:54.738Z,1876.00
2018-05-08T14:04:54.671Z,1848.00
2018-05-08T14:06:46.585Z,1868.00
2018-05-08T14:07:46.384Z,1844.00
2018-05-08T14:09:38.138Z,1828.00
2018-05-08T14:10:38.082Z,1828.00
2018-05-08T14:12:29.852Z,1824.00
2018-05-08T14:13:29.785Z,1824.00
2018-05-08T14:15:21.688Z,1816.00
2018-05-08T14:16:21.553Z,1824.00
2018-05-08T14:18:13.333Z,1812.00
2018-05-08T14:19:13.283Z,1820.00
2018-05-08T14:21:05.027Z,1800.00
2018-05-08T14:22:04.966Z,1836.00
2018-05-08T14:23:56.753Z,1816.00
2018-05-08T14:24:56.696Z,1796.00
2018-05-08T14:26:48.463Z,1792.00
2018-05-08T14:27:48.416Z,1792.00
2018-05-08T14:29:40.207Z,1776.00
2018-05-08T14:30:40.140Z,1776.00
2018-05-08T14:32:31.935Z,1772.00
2018-05-08T14:33:31.875Z,1772.00
2018-05-08T14:35:23.646Z,1748.00
2018-05-08T14:36:23.590Z,1756.00
2018-05-08T14:38:15.379Z,1740.00
2018-05-08T14:39:15.315Z,1764.00
2018-05-08T14:41:07.106Z,1708.00
2018-05-08T14:42:07.062Z,1736.00
2018-05-08T14:43:58.832Z,1768.00
2018-05-08T14:44:58.765Z,1760.00
2018-05-08T14:46:50.538Z,1756.00
2018-05-08T14:47:50.481Z,1764.00
2018-05-08T14:49:42.252Z,1768.00
2018-05-08T14:50:42.185Z,1780.00
2018-05-08T14:52:33.958Z,1772.00
2018-05-08T14:53:33.892Z,1772.00
2018-05-08T14:55:25.682Z,1760.00
2018-05-08T14:56:25.623Z,1672.00
2018-05-08T14:58:17.385Z,1728.00
2018-05-08T14:59:17.322Z,1708.00
2018-05-08T15:01:09.096Z,1712.00
2018-05-08T15:02:09.037Z,1712.00
2018-05-08T15:04:00.803Z,1708.00
2018-05-08T15:05:00.740Z,1672.00
2018-05-08T15:06:52.520Z,1660.00
2018-05-08T15:07:52.464Z,1688.00
2018-05-08T15:09:44.253Z,1672.00
2018-05-08T15:10:44.185Z,1652.00
2018-05-08T15:12:35.972Z,1656.00
2018-05-08T15:13:35.914Z,1664.00
2018-05-08T15:15:27.712Z,1652.00
2018-05-08T15:16:27.644Z,1660.00
2018-05-08T15:18:19.429Z,1644.00
2018-05-08T15:19:19.365Z,1648.00
2018-05-08T15:21:11.148Z,1636.00
2018-05-08T15:22:11.065Z,1632.00
2018-05-08T15:24:02.835Z,1608.00
2018-05-08T15:25:02.770Z,1600.00
2018-05-08T15:26:54.533Z,1604.00
2018-05-08T15:27:54.484Z,1588.00
2018-05-08T15:29:46.277Z,1580.00
2018-05-08T15:30:46.204Z,1580.00
2018-05-08T15:32:37.966Z,1572.00
2018-05-08T15:33:37.907Z,1560.00
2018-05-08T15:35:29.679Z,1560.00
2018-05-08T15:36:29.637Z,1568.00
2018-05-08T15:38:21.399Z,1532.00
2018-05-08T15:39:21.336Z,1536.00
2018-05-08T15:41:13.095Z,1516.00
2018-05-08T15:42:13.049Z,1520.00
2018-05-08T15:44:04.818Z,1520.00
2018-05-08T15:45:04.749Z,1524.00
2018-05-08T15:46:56.512Z,1528.00
2018-05-08T15:47:56.460Z,1508.00
2018-05-08T15:49:48.243Z,1512.00
2018-05-08T15:50:48.188Z,1504.00
2018-05-08T15:52:39.978Z,1508.00
2018-05-08T15:53:39.907Z,1492.00
2018-05-08T15:55:31.697Z,1468.00
2018-05-08T15:56:31.628Z,1456.00
2018-05-08T15:58:23.416Z,1452.00
2018-05-08T15:59:23.351Z,1444.00
2018-05-08T16:01:15.161Z,1436.00
2018-05-08T16:02:15.130Z,1436.00
2018-05-08T16:04:06.888Z,1420.00
2018-05-08T16:05:06.828Z,1428.00
2018-05-08T16:06:58.598Z,1408.00
2018-05-08T16:07:58.540Z,1400.00
2018-05-08T16:09:50.310Z,1388.00
2018-05-08T16:10:50.244Z,1376.00
2018-05-08T16:12:42.065Z,1348.00
2018-05-08T16:13:41.995Z,1348.00
2018-05-08T16:15:33.775Z,1344.00
2018-05-08T16:16:33.706Z,1324.00
2018-05-08T16:18:25.501Z,1324.00
2018-05-08T16:19:25.434Z,1304.00
2018-05-08T16:21:17.229Z,1292.00
2018-05-08T16:22:17.156Z,1268.00
2018-05-08T16:24:08.972Z,1264.00
2018-05-08T16:25:08.897Z,1276.00
2018-05-08T16:27:00.667Z,1192.00
2018-05-08T16:28:00.617Z,1268.00
2018-05-08T16:29:52.406Z,1264.00
2018-05-08T16:30:52.389Z,1260.00
2018-05-08T16:32:44.096Z,1252.00
2018-05-08T16:33:44.042Z,1244.00
2018-05-08T16:35:35.815Z,1248.00
2018-05-08T16:36:35.747Z,1248.00
2018-05-08T16:38:27.521Z,1240.00
2018-05-08T16:39:27.541Z,1232.00
2018-05-08T16:41:19.336Z,1220.00
2018-05-08T16:42:19.184Z,1184.00
2018-05-08T16:44:10.942Z,888.00
2018-05-08T16:45:10.885Z,1160.00
2018-05-08T16:47:02.669Z,1156.00
2018-05-08T16:48:02.593Z,1152.00
2018-05-08T16:49:54.469Z,1144.00
2018-05-08T16:50:54.361Z,1132.00
2018-05-08T16:52:46.124Z,1112.00
2018-05-08T16:53:46.056Z,1108.00
2018-05-08T16:55:37.815Z,1088.00
2018-05-08T16:56:37.745Z,1060.00
2018-05-08T16:58:29.508Z,1048.00
2018-05-08T16:59:29.443Z,1044.00
2018-05-08T17:01:21.268Z,1032.00
2018-05-08T17:02:21.218Z,1024.00
2018-05-08T17:04:13.015Z,1008.00
2018-05-08T17:05:12.929Z,1004.00
2018-05-08T17:07:04.718Z,988.00
2018-05-08T17:08:04.649Z,976.00
2018-05-08T17:09:56.435Z,960.00
2018-05-08T17:10:56.365Z,956.00
2018-05-08T17:12:48.143Z,936.00
2018-05-08T17:13:48.104Z,928.00
2018-05-08T17:15:39.881Z,920.00
2018-05-08T17:16:39.819Z,908.00
2018-05-08T17:18:31.584Z,896.00
2018-05-08T17:19:31.530Z,884.00
2018-05-08T17:21:23.422Z,872.00
2018-05-08T17:22:23.315Z,864.00
2018-05-08T17:24:15.169Z,848.00
2018-05-08T17:25:15.048Z,844.00
2018-05-08T17:27:06.839Z,824.00
2018-05-08T17:28:06.766Z,820.00
2018-05-08T17:29:58.560Z,804.00
2018-05-08T17:30:58.505Z,796.00